Swansea, Tasmania

12:20 AM AEST on July 26, 2016 (GMT +1000)
The Grange Hills Swansea | | Change Station

Elev 79 ft 42.04 °S, 148.08 °E | Updated 1 minute ago

Overcast
Overcast
45.0 °F
Feels Like 45 °F
N
2.9
Wind Variable Wind from WNW
Gusts 7.0 mph

Today
High -- | Low -- °F
--% Chance of Precip.
Yesterday
High -- | Low -- °F
Precip. -- in
Pressure 29.21 in
Visibility 6.2 miles
Clouds Scattered Clouds 3000 ft
Mostly Cloudy 5500 ft
Windchill 45 °F
Dew Point 36 °F
Humidity 70%
Rainfall 0.00 in
Snow Depth Not available.
7:23 AM 5:05 PM
Waning Gibbous, 65% visible
METAR YMHB 251400Z 30008KT 9999 -SHRA SCT030 BKN055 06/01 Q0989
Pressure 29.21 in
Visibility 6.2 miles
Clouds Scattered Clouds 3000 ft
Mostly Cloudy 5500 ft
Windchill 45 °F
Dew Point 36 °F
Humidity 70%
Rainfall 0.00 in
Snow Depth Not available.
7:23 AM 5:05 PM
Waning Gibbous, 65% visible
METAR YMHB 251400Z 30008KT 9999 -SHRA SCT030 BKN055 06/01 Q0989

10-Day Weather Forecast

Almanac

Astronomy

Jul. 26, 2016 Rise Set
Actual Time
Civil Twilight
Nautical Twilight
Astronomical Twilight
Moon
Length of Visible Light
Length of Day
Tomorrow will be .
, % of the Moon is Illuminated

Today's Extremes

Country Highs Country Lows

Community

WunderPhotos

Upload Photos

1,927,302 photos uploaded!

WunderBlog® & News

Nearby

Air Quality

  Air Quality AQ Index Pollutant
Not available.

Snow Depth

Station Depth Elevation

Earthquake Activity

City Distance Mag. Time & Date
Minimum magnitude displayed is 2.5.

Coastal Water Temperatures

Place Temperature

Stations

Nearby Weather Stations

Station Location Temp. Windchill Dew Point Humidity Wind Precip. Elev Updated Type